createdAt,value
2024-01-24T00:00:39.461Z,101183.81
2024-01-24T00:03:06.187Z,101167.78
2024-01-24T00:05:32.899Z,101176.75
2024-01-24T00:07:59.610Z,101190.88
2024-01-24T00:10:26.150Z,101175.38
2024-01-24T00:12:52.824Z,101175.69
2024-01-24T00:15:19.588Z,101166.16
2024-01-24T00:17:46.269Z,101192.50
2024-01-24T00:20:14.013Z,101172.94
2024-01-24T00:22:40.634Z,101173.75
2024-01-24T00:25:07.492Z,101172.94
2024-01-24T00:27:34.021Z,101178.09
2024-01-24T00:30:00.742Z,101182.44
2024-01-24T00:32:27.441Z,101174.59
2024-01-24T00:34:54.159Z,101191.41
2024-01-24T00:37:20.751Z,101187.34
2024-01-24T00:39:48.770Z,101212.84
2024-01-24T00:42:15.592Z,101188.13
2024-01-24T00:44:44.466Z,101197.66
2024-01-24T00:47:11.007Z,101189.75
2024-01-24T00:49:37.935Z,101195.47
2024-01-24T00:52:05.060Z,101204.69
2024-01-24T00:54:31.678Z,101205.22
2024-01-24T00:56:58.207Z,101212.78
2024-01-24T00:59:24.756Z,101219.31
2024-01-24T01:01:51.332Z,101224.19
2024-01-24T01:04:17.959Z,101214.13
2024-01-24T01:06:44.745Z,101214.94
2024-01-24T01:09:11.964Z,101209.53
2024-01-24T01:11:39.751Z,101204.34
2024-01-24T01:14:06.353Z,101198.91
2024-01-24T01:16:32.997Z,101201.34
2024-01-24T01:19:00.146Z,101185.88
2024-01-24T01:21:26.807Z,101197.56
2024-01-24T01:23:53.404Z,101208.41
2024-01-24T01:26:20.156Z,101206.78
2024-01-24T01:28:46.737Z,101192.13
2024-01-24T01:31:13.302Z,101204.06
2024-01-24T01:33:39.912Z,101199.72
2024-01-24T01:36:17.234Z,101203.50
2024-01-24T01:38:49.147Z,101191.56
2024-01-24T01:41:15.684Z,101180.16
2024-01-24T01:43:42.181Z,101188.31
2024-01-24T01:46:12.534Z,101177.47
2024-01-24T01:48:39.681Z,101186.41
2024-01-24T01:51:07.263Z,101192.38
2024-01-24T01:53:39.627Z,101180.72
2024-01-24T01:56:10.256Z,101180.97
2024-01-24T01:58:38.493Z,101165.53
2024-01-24T02:01:07.231Z,101171.75
2024-01-24T02:03:34.421Z,101165.53
2024-01-24T02:06:04.482Z,101192.66
2024-01-24T02:08:33.611Z,101171.50
2024-01-24T02:11:00.359Z,101160.13
2024-01-24T02:13:33.820Z,101163.63
2024-01-24T02:16:00.993Z,101160.69
2024-01-24T02:18:27.941Z,101173.97
2024-01-24T02:20:55.127Z,101170.44
2024-01-24T02:23:26.818Z,101162.31
2024-01-24T02:25:54.305Z,101119.97
2024-01-24T02:28:21.229Z,101147.09
2024-01-24T02:30:47.848Z,101160.69
2024-01-24T02:33:16.991Z,101163.94
2024-01-24T02:35:43.827Z,101184.81
2024-01-24T02:38:10.419Z,101181.03
2024-01-24T02:40:37.013Z,101174.78
2024-01-24T02:43:03.964Z,101178.06
2024-01-24T02:45:30.565Z,101209.00
2024-01-24T02:47:57.236Z,101207.38
2024-01-24T02:50:23.965Z,101201.09
2024-01-24T02:52:50.548Z,101212.25
2024-01-24T02:55:17.220Z,101212.25
2024-01-24T02:57:45.110Z,101206.81
2024-01-24T03:00:14.335Z,101214.94
2024-01-24T03:02:41.201Z,101209.53
2024-01-24T03:05:10.527Z,101204.09
2024-01-24T03:07:38.322Z,101202.47
2024-01-24T03:10:05.852Z,101232.03
2024-01-24T03:12:32.516Z,101252.13
2024-01-24T03:14:59.281Z,101240.47
2024-01-24T03:17:25.853Z,101240.47
2024-01-24T03:19:52.580Z,101224.97
2024-01-24T03:22:19.681Z,101231.47
2024-01-24T03:24:46.271Z,101245.88
2024-01-24T03:27:13.045Z,101255.09
2024-01-24T03:29:42.138Z,101256.19
2024-01-24T03:32:08.767Z,101226.34
2024-01-24T03:34:35.741Z,101250.19
2024-01-24T03:37:02.329Z,101262.13
2024-01-24T03:39:29.481Z,101235.56
2024-01-24T03:41:56.150Z,101233.09
2024-01-24T03:44:22.699Z,101239.34
2024-01-24T03:46:49.349Z,101236.06
2024-01-24T03:49:16.493Z,101263.22
2024-01-24T03:51:44.313Z,101242.84
2024-01-24T03:54:10.925Z,101242.03
2024-01-24T03:56:37.448Z,101245.00
2024-01-24T03:59:04.001Z,101232.78
2024-01-24T04:01:30.619Z,101245.78
2024-01-24T04:03:57.309Z,101225.16
2024-01-24T04:06:24.017Z,101219.97
2024-01-24T04:08:50.674Z,101233.25
2024-01-24T04:11:17.184Z,101201.22
2024-01-24T04:13:44.176Z,101212.09
2024-01-24T04:16:10.876Z,101234.31
2024-01-24T04:18:38.627Z,101198.47
2024-01-24T04:21:05.443Z,101221.50
2024-01-24T04:23:31.984Z,101219.59
2024-01-24T04:25:58.631Z,101217.16
2024-01-24T04:28:25.215Z,101254.28
2024-01-24T04:30:51.766Z,101252.94
2024-01-24T04:33:18.450Z,101255.34
2024-01-24T04:35:45.062Z,101255.84
2024-01-24T04:38:11.611Z,101265.06
2024-01-24T04:40:38.148Z,101258.81
2024-01-24T04:43:05.084Z,101305.16
2024-01-24T04:45:31.960Z,101291.88
2024-01-24T04:47:58.995Z,101311.94
2024-01-24T04:50:25.836Z,101312.19
2024-01-24T04:52:52.623Z,101336.59
2024-01-24T04:55:19.198Z,101324.94
2024-01-24T04:57:45.858Z,101326.56
2024-01-24T05:00:13.568Z,101330.38
2024-01-24T05:02:40.633Z,101363.13
2024-01-24T05:05:08.258Z,101345.19
2024-01-24T05:07:36.108Z,101359.84
2024-01-24T05:10:04.879Z,101354.69
2024-01-24T05:12:32.800Z,101348.94
2024-01-24T05:14:59.490Z,101350.00
2024-01-24T05:17:26.038Z,101362.75
2024-01-24T05:19:52.601Z,101353.22
2024-01-24T05:22:19.315Z,101346.16
2024-01-24T05:24:47.106Z,101335.84
2024-01-24T05:27:14.188Z,101348.03
2024-01-24T05:29:40.845Z,101354.25
2024-01-24T05:32:07.968Z,101353.69
2024-01-24T05:34:35.513Z,101361.81
2024-01-24T05:37:02.265Z,101381.63
2024-01-24T05:39:28.811Z,101389.75
2024-01-24T05:41:55.491Z,101405.19
2024-01-24T05:44:22.410Z,101410.59
2024-01-24T05:46:49.049Z,101408.97
2024-01-24T05:49:15.761Z,101407.34
2024-01-24T05:51:43.722Z,101431.72
2024-01-24T05:54:10.805Z,101418.69
2024-01-24T05:56:37.433Z,101414.09
2024-01-24T05:59:04.050Z,101444.97
2024-01-24T06:01:30.778Z,101426.25
2024-01-24T06:03:57.552Z,101440.88
2024-01-24T06:06:24.485Z,101424.03
2024-01-24T06:08:51.144Z,101460.91
2024-01-24T06:11:18.816Z,101449.25
2024-01-24T06:13:45.501Z,101459.25
2024-01-24T06:16:12.062Z,101468.47
2024-01-24T06:18:38.781Z,101465.22
2024-01-24T06:21:05.592Z,101489.03
2024-01-24T06:23:32.176Z,101485.75
2024-01-24T06:25:58.826Z,101474.09
2024-01-24T06:28:25.423Z,101485.19
2024-01-24T06:30:53.017Z,101478.38
2024-01-24T06:33:20.126Z,101494.88
2024-01-24T06:35:46.719Z,101510.31
2024-01-24T06:38:14.068Z,101501.03
2024-01-24T06:40:40.706Z,101515.34
2024-01-24T06:43:07.477Z,101521.81
2024-01-24T06:45:34.079Z,101532.66
2024-01-24T06:48:00.801Z,101555.41
2024-01-24T06:50:27.336Z,101552.34
2024-01-24T06:52:55.090Z,101541.53
2024-01-24T06:55:22.176Z,101530.94
2024-01-24T06:57:48.893Z,101534.72
2024-01-24T07:00:16.087Z,101556.88
2024-01-24T07:02:42.653Z,101555.81
2024-01-24T07:05:09.549Z,101560.66
2024-01-24T07:07:38.706Z,101554.91
2024-01-24T07:10:05.999Z,101552.69
2024-01-24T07:12:32.724Z,101558.34
2024-01-24T07:14:59.265Z,101565.91
2024-01-24T07:17:25.981Z,101552.59
2024-01-24T07:19:52.830Z,101569.69
2024-01-24T07:22:19.478Z,101576.38
2024-01-24T07:24:46.234Z,101585.59
2024-01-24T07:27:12.887Z,101568.19
2024-01-24T07:29:39.858Z,101565.72
2024-01-24T07:32:07.021Z,101581.97
2024-01-24T07:34:33.805Z,101602.00
2024-01-24T07:37:00.861Z,101591.44
2024-01-24T07:39:29.601Z,101590.84
2024-01-24T07:41:57.292Z,101600.84
2024-01-24T07:44:24.282Z,101599.19
2024-01-24T07:46:50.864Z,101601.31
2024-01-24T07:49:18.722Z,101632.19
2024-01-24T07:51:47.924Z,101665.25
2024-01-24T07:54:15.062Z,101633.81
2024-01-24T07:56:41.848Z,101647.84
2024-01-24T07:59:09.432Z,101646.78
2024-01-24T08:01:37.293Z,101648.91
2024-01-24T08:04:04.644Z,101645.13
2024-01-24T08:06:31.461Z,101673.84
2024-01-24T08:08:58.201Z,101659.72
2024-01-24T08:11:26.105Z,101655.97
2024-01-24T08:13:52.955Z,101671.41
2024-01-24T08:16:20.171Z,101663.03
2024-01-24T08:18:47.018Z,101683.63
2024-01-24T08:21:14.241Z,101686.31
2024-01-24T08:23:47.064Z,101684.69
2024-01-24T08:26:18.051Z,101673.84
2024-01-24T08:28:44.794Z,101690.09
2024-01-24T08:31:12.392Z,101681.16
2024-01-24T08:33:39.103Z,101695.50
2024-01-24T08:36:06.433Z,101700.94
2024-01-24T08:38:32.976Z,101706.94
2024-01-24T08:40:59.614Z,101712.34
2024-01-24T08:43:26.112Z,101722.69
2024-01-24T08:45:52.814Z,101733.53
2024-01-24T08:48:19.945Z,101714.81
2024-01-24T08:50:46.641Z,101733.53
2024-01-24T08:53:13.702Z,101734.38
2024-01-24T08:55:40.456Z,101721.63
2024-01-24T08:58:07.269Z,101731.41
2024-01-24T09:00:34.116Z,101729.84
2024-01-24T09:03:00.830Z,101761.88
2024-01-24T09:05:27.715Z,101782.59
2024-01-24T09:07:54.300Z,101802.34
2024-01-24T09:10:21.449Z,101796.28
2024-01-24T09:12:48.250Z,101779.91
2024-01-24T09:15:15.222Z,101767.41
2024-01-24T09:17:41.922Z,101768.66
2024-01-24T09:20:09.376Z,101772.31
2024-01-24T09:22:36.283Z,101771.81
2024-01-24T09:25:06.595Z,101787.81
2024-01-24T09:27:35.274Z,101789.72
2024-01-24T09:30:01.899Z,101812.56
2024-01-24T09:32:28.590Z,101815.84
2024-01-24T09:34:55.849Z,101833.69
2024-01-24T09:37:22.687Z,101841.06
2024-01-24T09:39:51.229Z,101820.91
2024-01-24T09:42:23.804Z,101819.53
2024-01-24T09:44:51.665Z,101831.66
2024-01-24T09:47:20.901Z,101856.56
2024-01-24T09:49:47.777Z,101836.75
2024-01-24T09:52:18.096Z,101847.84
2024-01-24T09:54:46.600Z,101841.38
2024-01-24T09:57:14.181Z,101844.66
2024-01-24T09:59:40.877Z,101850.06
2024-01-24T10:02:07.556Z,101861.97
2024-01-24T10:04:38.854Z,101860.34
2024-01-24T10:07:08.861Z,101875.53
2024-01-24T10:09:35.604Z,101869.06
2024-01-24T10:12:02.437Z,101876.66
2024-01-24T10:14:31.901Z,101890.81
2024-01-24T10:16:58.917Z,101894.34
2024-01-24T10:19:26.411Z,101905.31
2024-01-24T10:21:53.766Z,101911.53
2024-01-24T10:24:20.667Z,101906.94
2024-01-24T10:26:47.899Z,101904.00
2024-01-24T10:29:15.370Z,101896.69
2024-01-24T10:31:43.934Z,101894.78
2024-01-24T10:34:12.144Z,101911.53
2024-01-24T10:36:43.500Z,101902.00
2024-01-24T10:39:14.984Z,101932.06
2024-01-24T10:41:44.165Z,101921.22
2024-01-24T10:44:15.565Z,101930.41
2024-01-24T10:46:42.422Z,101935.59
2024-01-24T10:49:13.372Z,101935.81
2024-01-24T10:51:41.007Z,101990.03
2024-01-24T17:19:26.000Z,102571.44
2024-01-24T17:21:52.820Z,102575.81
2024-01-24T17:24:19.706Z,102575.81
2024-01-24T17:26:46.228Z,102573.94
2024-01-24T17:29:12.768Z,102583.50
2024-01-24T17:31:39.761Z,102582.44
2024-01-24T17:34:06.419Z,102582.25
2024-01-24T17:36:33.170Z,102583.91
2024-01-24T17:38:59.672Z,102582.84
2024-01-24T17:41:26.465Z,102597.00
2024-01-24T17:43:53.026Z,102602.19
2024-01-24T17:46:19.596Z,102601.13
2024-01-24T17:48:46.684Z,102605.50
2024-01-24T17:51:14.952Z,102613.00
2024-01-24T17:53:41.489Z,102621.13
2024-01-24T17:56:08.050Z,102618.84
2024-01-24T17:58:36.042Z,102618.84
2024-01-24T18:01:04.360Z,102621.31
2024-01-24T18:03:31.217Z,102623.22
2024-01-24T18:05:57.828Z,102615.28
2024-01-24T18:08:24.566Z,102618.00
2024-01-24T18:10:51.163Z,102621.75
2024-01-24T18:13:17.684Z,102609.88
2024-01-24T18:15:44.318Z,102609.06
2024-01-24T18:18:11.229Z,102601.97
2024-01-24T18:20:37.835Z,102610.09
2024-01-24T18:23:04.698Z,102611.97
2024-01-24T18:25:31.449Z,102609.25
2024-01-24T18:27:57.944Z,102616.56
2024-01-24T18:30:24.714Z,102612.41
2024-01-24T18:32:51.485Z,102607.22
2024-01-24T18:35:18.361Z,102598.25
2024-01-24T18:37:44.993Z,102600.97
2024-01-24T18:40:12.262Z,102596.81
2024-01-24T18:42:41.666Z,102598.69
2024-01-24T18:45:11.192Z,102605.13
2024-01-24T18:47:37.888Z,102607.22
2024-01-24T18:50:05.366Z,102613.06
2024-01-24T18:52:31.870Z,102603.09
2024-01-24T18:54:58.815Z,102606.63
2024-01-24T18:57:28.342Z,102618.47
2024-01-24T18:59:54.927Z,102617.66
2024-01-24T19:02:21.746Z,102618.47
2024-01-24T19:04:48.756Z,102612.25
2024-01-24T19:07:15.710Z,102615.19
2024-01-24T19:09:43.484Z,102622.47
2024-01-24T19:12:11.049Z,102621.66
2024-01-24T19:14:41.162Z,102610.22
2024-01-24T19:17:07.848Z,102618.34
2024-01-24T19:19:34.742Z,102626.03
2024-01-24T19:22:01.770Z,102631.25
2024-01-24T19:24:28.306Z,102632.28
2024-01-24T19:26:54.960Z,102636.03
2024-01-24T19:29:21.683Z,102631.06
2024-01-24T19:31:50.428Z,102627.72
2024-01-24T19:34:20.233Z,102636.03
2024-01-24T19:36:46.844Z,102629.81
2024-01-24T19:39:14.973Z,102630.63
2024-01-24T19:41:41.610Z,102640.66
2024-01-24T19:44:08.351Z,102636.03
2024-01-24T19:46:34.989Z,102628.97
2024-01-24T19:49:01.684Z,102632.53
2024-01-24T19:51:29.044Z,102636.28
2024-01-24T19:53:56.343Z,102626.91
2024-01-24T19:56:22.907Z,102641.06
2024-01-24T19:58:49.632Z,102634.63
2024-01-24T20:01:16.318Z,102641.06
2024-01-24T20:03:42.937Z,102637.50
2024-01-24T20:06:09.487Z,102643.16
2024-01-24T20:08:36.133Z,102646.91
2024-01-24T20:11:02.740Z,102659.38
2024-01-24T20:13:31.678Z,102656.06
2024-01-24T20:15:59.170Z,102654.41
2024-01-24T20:18:26.139Z,102654.41
2024-01-24T20:20:52.952Z,102653.34
2024-01-24T20:23:19.508Z,102650.03
2024-01-24T20:25:46.059Z,102667.31
2024-01-24T20:28:12.686Z,102659.81
2024-01-24T20:30:40.853Z,102668.97
2024-01-24T20:33:07.505Z,102661.91
2024-01-24T20:35:34.068Z,102661.06
2024-01-24T20:38:01.320Z,102664.78
2024-01-24T20:40:27.827Z,102672.72
2024-01-24T20:42:54.644Z,102675.63
2024-01-24T20:45:21.208Z,102670.22
2024-01-24T20:47:49.101Z,102664.59
2024-01-24T20:50:19.493Z,102661.91
2024-01-24T20:52:46.203Z,102658.16
2024-01-24T20:55:12.807Z,102655.44
2024-01-24T20:57:39.449Z,102658.78
2024-01-24T21:00:09.854Z,102656.88
2024-01-24T21:02:36.678Z,102659.38
2024-01-24T21:05:03.747Z,102661.47
2024-01-24T21:07:30.607Z,102656.88
2024-01-24T21:09:57.837Z,102650.66
2024-01-24T21:12:24.369Z,102656.88
2024-01-24T21:14:51.175Z,102664.19
2024-01-24T21:17:18.361Z,102663.13
2024-01-24T21:19:45.020Z,102671.88
2024-01-24T21:22:11.753Z,102672.06
2024-01-24T21:24:38.476Z,102670.22
2024-01-24T21:27:05.361Z,102666.47
2024-01-24T21:29:31.986Z,102667.50
2024-01-24T21:31:59.558Z,102660.19
2024-01-24T21:34:26.372Z,102648.34
2024-01-24T21:36:53.394Z,102659.16
2024-01-24T21:39:21.038Z,102658.53
2024-01-24T21:41:47.590Z,102659.38
2024-01-24T21:44:14.107Z,102670.22
2024-01-24T21:46:40.996Z,102678.94
2024-01-24T21:49:08.496Z,102690.38
2024-01-24T21:51:35.049Z,102678.94
2024-01-24T21:54:01.655Z,102677.28
2024-01-24T21:56:28.154Z,102667.28
2024-01-24T21:58:56.302Z,102678.94
2024-01-24T22:01:24.372Z,102681.41
2024-01-24T22:03:51.993Z,102680.59
2024-01-24T22:06:18.787Z,102681.66
2024-01-24T22:08:46.013Z,102690.59
2024-01-24T22:11:14.893Z,102688.50
2024-01-24T22:13:41.521Z,102702.88
2024-01-24T22:16:08.309Z,102703.91
2024-01-24T22:18:40.936Z,102710.13
2024-01-24T22:21:14.118Z,102700.16
2024-01-24T22:23:40.768Z,102709.31
2024-01-24T22:26:07.461Z,102711.00
2024-01-24T22:28:33.972Z,102710.38
2024-01-24T22:31:00.528Z,102707.66
2024-01-24T22:33:27.284Z,102709.31
2024-01-24T22:35:54.171Z,102706.00
2024-01-24T22:38:20.827Z,102702.69
2024-01-24T22:40:47.374Z,102708.09
2024-01-24T22:43:14.011Z,102709.75
2024-01-24T22:45:40.735Z,102714.53
2024-01-24T22:48:07.909Z,102715.34
2024-01-24T22:50:34.555Z,102711.84
2024-01-24T22:53:01.211Z,102719.94
2024-01-24T22:55:27.983Z,102726.41
2024-01-24T22:57:54.717Z,102722.03
2024-01-24T23:00:22.835Z,102725.78
2024-01-24T23:02:49.502Z,102723.06
2024-01-24T23:05:17.130Z,102731.59
2024-01-24T23:07:44.113Z,102732.44
2024-01-24T23:10:11.445Z,102734.31
2024-01-24T23:12:38.723Z,102737.22
2024-01-24T23:15:06.401Z,102745.56
2024-01-24T23:17:33.345Z,102743.91
2024-01-24T23:20:00.032Z,102751.16
2024-01-24T23:22:27.810Z,102761.34
2024-01-24T23:24:54.608Z,102767.00
2024-01-24T23:27:21.195Z,102764.69
2024-01-24T23:29:47.721Z,102758.66
2024-01-24T23:32:14.370Z,102757.41
2024-01-24T23:34:41.009Z,102768.22
2024-01-24T23:37:07.656Z,102764.91
2024-01-24T23:39:34.290Z,102763.44
2024-01-24T23:42:00.995Z,102768.03
2024-01-24T23:44:27.466Z,102758.44
2024-01-24T23:46:53.991Z,102763.41
2024-01-24T23:49:20.704Z,102772.56
2024-01-24T23:51:47.566Z,102767.56
2024-01-24T23:54:14.299Z,102764.06
2024-01-24T23:56:41.223Z,102758.84
2024-01-24T23:59:09.081Z,102764.25
